Kota Waris — S6RJ — position and weather

sailwx.info

Track history (hours):
 
Tides and Currents Weather Stations Pressure Air Temp Water Temp Dewpoint Dewpoint Depression Visibility Wind Speed Wind Dir Waves Ship Positions

Kota Waris

Last reported at 2017-Oct-18 20:24 UTC. Time now 2017-Oct-19 03:33 UTC.
Position N 01°14' E 103°47'.

Length 185 m; draft 9.7 m.

Type: Cargo ship. MMSI: 564482000.

Date/timePositionNaut miles runAvg speedWind from/ knotsBaromVisibWave heightAir tempDewpointWater temp
2017-Oct-18 20:24N 01°14' E 103°47'1 2.3
2017-Oct-18 19:56N 01°15' E 103°47'0 0.3
2017-Oct-18 19:29N 01°15' E 103°47'0 0.4
2017-Oct-18 18:54N 01°15' E 103°47'0 0.0
2017-Oct-18 18:29N 01°15' E 103°47'0 0.0
2017-Oct-18 17:59N 01°15' E 103°47'0 0.0
2017-Oct-18 17:25N 01°15' E 103°47'0 0.0
2017-Oct-18 16:59N 01°15' E 103°47'0 0.0
2017-Oct-18 16:30N 01°15' E 103°47'0 0.0
2017-Oct-18 14:47N 01°15' E 103°47'0 0.0
2017-Oct-18 13:37N 01°15' E 103°47'0 0.0
2017-Oct-18 13:28N 01°15' E 103°47'16 5.0
2017-Oct-18 10:12N 01°15' E 104°03'312.6
2017-Oct-18 09:59N 01°15' E 104°01'613.0
2017-Oct-18 09:30N 01°13' E 103°55'611.6
2017-Oct-18 09:00N 01°12' E 103°49'4 7.3
2017-Oct-18 08:30N 01°15' E 103°47'0 0.6
2017-Oct-18 08:00N 01°15' E 103°47'0 0.0
2017-Oct-18 07:30N 01°15' E 103°47'0 0.0
2017-Oct-18 06:58N 01°15' E 103°47'0 0.0
2017-Oct-18 06:25N 01°15' E 103°47'0 0.0
2017-Oct-18 05:55N 01°15' E 103°47'0 0.0
2017-Oct-18 05:28N 01°15' E 103°47'0 0.0
2017-Oct-18 04:58N 01°15' E 103°47'0 0.0
2017-Oct-18 04:22N 01°15' E 103°47'0 0.0
2017-Oct-18 03:49N 01°15' E 103°47'3 7.1
2017-Oct-18 03:25N 01°16' E 103°50'3 5.7
2017-Oct-18 02:55N 01°15' E 103°47'0 0.0
2017-Oct-18 02:25N 01°15' E 103°47'0 0.0
2017-Oct-18 01:58N 01°15' E 103°47'0 0.0
2017-Oct-18 01:25N 01°15' E 103°47'0 0.0
2017-Oct-18 00:58N 01°15' E 103°47'0 0.0
2017-Oct-18 00:25N 01°15' E 103°47'0 0.0
2017-Oct-17 23:55N 01°15' E 103°47'3 6.3
2017-Oct-17 23:28N 01°16' E 103°50'3 7.0
2017-Oct-17 23:00N 01°14' E 103°47'4 7.3
2017-Oct-17 22:30N 01°12' E 103°50'3 5.7
2017-Oct-17 22:00N 01°15' E 103°51'1 2.5
2017-Oct-17 21:30N 01°16' E 103°50'0 0.0
2017-Oct-17 20:51N 01°16' E 103°50'0 0.0
2017-Oct-17 20:27N 01°16' E 103°50'0 0.0
2017-Oct-17 19:57N 01°16' E 103°50'0 0.6
2017-Oct-17 19:31N 01°16' E 103°50'0 0.6
2017-Oct-17 18:59N 01°16' E 103°51'0 1.0
2017-Oct-17 18:30N 01°15' E 103°51'1 1.3
2017-Oct-17 18:00N 01°15' E 103°51'1 1.8
2017-Oct-17 17:30N 01°15' E 103°52'1 1.4
2017-Oct-17 16:59N 01°14' E 103°53'3 6.8
2017-Oct-17 16:30N 01°16' E 103°50'0 0.0
2017-Oct-17 15:57N 01°16' E 103°50'0 0.0
2017-Oct-17 15:15N 01°16' E 103°50'0 0.0
2017-Oct-17 14:51N 01°16' E 103°50'0 0.0
2017-Oct-17 14:15N 01°16' E 103°50'0 0.0
2017-Oct-17 13:57N 01°16' E 103°50'0 0.1
2017-Oct-17 13:27N 01°16' E 103°50'0 0.1
2017-Oct-17 12:57N 01°16' E 103°50'0 0.0
2017-Oct-17 12:30N 01°16' E 103°50'0 0.0
2017-Oct-17 11:57N 01°16' E 103°50'0 0.0
2017-Oct-17 11:27N 01°16' E 103°50'0 0.0
2017-Oct-17 10:54N 01°16' E 103°50'0 0.0
2017-Oct-17 10:27N 01°16' E 103°50'0 0.0
2017-Oct-17 09:45N 01°16' E 103°50'0 0.0
2017-Oct-17 09:27N 01°16' E 103°50'0 0.0
2017-Oct-17 09:00N 01°16' E 103°50'1 1.7
2017-Oct-17 08:30N 01°16' E 103°51'3 6.0
2017-Oct-17 08:00N 01°14' E 103°53'3 6.1
2017-Oct-17 07:31N 01°15' E 103°56'611.1
2017-Oct-17 07:00N 01°16' E 104°02'1511.1
2017-Oct-17 05:41N 01°18' E 104°16'211.6
2017-Oct-17 05:30N 01°18' E 104°18'  
2017-Oct-10 23:57N 01°16' E 103°50'0 0.0
2017-Oct-10 23:27N 01°16' E 103°50'0 0.0
2017-Oct-10 22:57N 01°16' E 103°50'0 0.0
2017-Oct-10 22:30N 01°16' E 103°50'0 0.0
2017-Oct-10 22:00N 01°16' E 103°50'0 0.0
2017-Oct-10 21:30N 01°16' E 103°50'0 0.0
2017-Oct-10 21:00N 01°16' E 103°50'0 0.0
2017-Oct-10 20:27N 01°16' E 103°50'0 0.0
2017-Oct-10 20:00N 01°16' E 103°50'0 0.0
2017-Oct-10 19:30N 01°16' E 103°50'0 0.0
2017-Oct-10 19:00N 01°16' E 103°50'0 0.0
2017-Oct-10 18:30N 01°16' E 103°50'5 9.3
2017-Oct-10 18:00N 01°14' E 103°54'0 0.3
2017-Oct-10 17:29N 01°14' E 103°54'0 0.5
2017-Oct-10 17:00N 01°14' E 103°54'0 0.9
2017-Oct-10 16:30N 01°14' E 103°55'5 5.3
2017-Oct-10 15:30N 01°16' E 103°50'0 0.0
2017-Oct-10 14:00N 01°16' E 103°50'0 0.0
2017-Oct-10 13:30N 01°16' E 103°50'0 0.0
2017-Oct-10 12:54N 01°16' E 103°50'0 0.0
2017-Oct-10 12:30N 01°16' E 103°50'0 0.0
2017-Oct-10 11:51N 01°16' E 103°50'0 0.0
2017-Oct-10 11:30N 01°16' E 103°50'0 0.0
2017-Oct-10 11:00N 01°16' E 103°50'1 2.0
2017-Oct-10 10:30N 01°16' E 103°51'3 5.8
2017-Oct-10 10:00N 01°14' E 103°53'2 3.7
2017-Oct-10 09:30N 01°14' E 103°55'3 5.4
2017-Oct-10 09:00N 01°15' E 103°58'3 6.7
2017-Oct-10 08:30N 01°16' E 104°01'  
Track history (hours):
 
Tides and Currents Weather Stations Pressure Air Temp Water Temp Dewpoint Dewpoint Depression Visibility Wind Speed Wind Dir Waves Ship Positions

Kota Waris

Last reported at 2017-Oct-18 20:24 UTC. Time now 2017-Oct-19 03:33 UTC.
Position N 01°14' E 103°47'.

Length 185 m; draft 9.7 m.

Type: Cargo ship. MMSI: 564482000.

Date/timePositionNaut miles runAvg speedWind from/ knotsBaromVisibWave heightAir tempDewpointWater temp
2017-Oct-18 20:24N 01°14' E 103°47'1 2.3
2017-Oct-18 19:56N 01°15' E 103°47'0 0.3
2017-Oct-18 19:29N 01°15' E 103°47'0 0.4
2017-Oct-18 18:54N 01°15' E 103°47'0 0.0
2017-Oct-18 18:29N 01°15' E 103°47'0 0.0
2017-Oct-18 17:59N 01°15' E 103°47'0 0.0
2017-Oct-18 17:25N 01°15' E 103°47'0 0.0
2017-Oct-18 16:59N 01°15' E 103°47'0 0.0
2017-Oct-18 16:30N 01°15' E 103°47'0 0.0
2017-Oct-18 14:47N 01°15' E 103°47'0 0.0
2017-Oct-18 13:37N 01°15' E 103°47'0 0.0
2017-Oct-18 13:28N 01°15' E 103°47'16 5.0
2017-Oct-18 10:12N 01°15' E 104°03'312.6
2017-Oct-18 09:59N 01°15' E 104°01'613.0
2017-Oct-18 09:30N 01°13' E 103°55'611.6
2017-Oct-18 09:00N 01°12' E 103°49'4 7.3
2017-Oct-18 08:30N 01°15' E 103°47'0 0.6
2017-Oct-18 08:00N 01°15' E 103°47'0 0.0
2017-Oct-18 07:30N 01°15' E 103°47'0 0.0
2017-Oct-18 06:58N 01°15' E 103°47'0 0.0
2017-Oct-18 06:25N 01°15' E 103°47'0 0.0
2017-Oct-18 05:55N 01°15' E 103°47'0 0.0
2017-Oct-18 05:28N 01°15' E 103°47'0 0.0
2017-Oct-18 04:58N 01°15' E 103°47'0 0.0
2017-Oct-18 04:22N 01°15' E 103°47'0 0.0
2017-Oct-18 03:49N 01°15' E 103°47'3 7.1
2017-Oct-18 03:25N 01°16' E 103°50'3 5.7
2017-Oct-18 02:55N 01°15' E 103°47'0 0.0
2017-Oct-18 02:25N 01°15' E 103°47'0 0.0
2017-Oct-18 01:58N 01°15' E 103°47'0 0.0
2017-Oct-18 01:25N 01°15' E 103°47'0 0.0
2017-Oct-18 00:58N 01°15' E 103°47'0 0.0
2017-Oct-18 00:25N 01°15' E 103°47'0 0.0
2017-Oct-17 23:55N 01°15' E 103°47'3 6.3
2017-Oct-17 23:28N 01°16' E 103°50'3 7.0
2017-Oct-17 23:00N 01°14' E 103°47'4 7.3
2017-Oct-17 22:30N 01°12' E 103°50'3 5.7
2017-Oct-17 22:00N 01°15' E 103°51'1 2.5
2017-Oct-17 21:30N 01°16' E 103°50'0 0.0
2017-Oct-17 20:51N 01°16' E 103°50'0 0.0
2017-Oct-17 20:27N 01°16' E 103°50'0 0.0
2017-Oct-17 19:57N 01°16' E 103°50'0 0.6
2017-Oct-17 19:31N 01°16' E 103°50'0 0.6
2017-Oct-17 18:59N 01°16' E 103°51'0 1.0
2017-Oct-17 18:30N 01°15' E 103°51'1 1.3
2017-Oct-17 18:00N 01°15' E 103°51'1 1.8
2017-Oct-17 17:30N 01°15' E 103°52'1 1.4
2017-Oct-17 16:59N 01°14' E 103°53'3 6.8
2017-Oct-17 16:30N 01°16' E 103°50'0 0.0
2017-Oct-17 15:57N 01°16' E 103°50'0 0.0
2017-Oct-17 15:15N 01°16' E 103°50'0 0.0
2017-Oct-17 14:51N 01°16' E 103°50'0 0.0
2017-Oct-17 14:15N 01°16' E 103°50'0 0.0
2017-Oct-17 13:57N 01°16' E 103°50'0 0.1
2017-Oct-17 13:27N 01°16' E 103°50'0 0.1
2017-Oct-17 12:57N 01°16' E 103°50'0 0.0
2017-Oct-17 12:30N 01°16' E 103°50'0 0.0
2017-Oct-17 11:57N 01°16' E 103°50'0 0.0
2017-Oct-17 11:27N 01°16' E 103°50'0 0.0
2017-Oct-17 10:54N 01°16' E 103°50'0 0.0
2017-Oct-17 10:27N 01°16' E 103°50'0 0.0
2017-Oct-17 09:45N 01°16' E 103°50'0 0.0
2017-Oct-17 09:27N 01°16' E 103°50'0 0.0
2017-Oct-17 09:00N 01°16' E 103°50'1 1.7
2017-Oct-17 08:30N 01°16' E 103°51'3 6.0
2017-Oct-17 08:00N 01°14' E 103°53'3 6.1
2017-Oct-17 07:31N 01°15' E 103°56'611.1
2017-Oct-17 07:00N 01°16' E 104°02'1511.1
2017-Oct-17 05:41N 01°18' E 104°16'211.6
2017-Oct-17 05:30N 01°18' E 104°18'  
2017-Oct-10 23:57N 01°16' E 103°50'0 0.0
2017-Oct-10 23:27N 01°16' E 103°50'0 0.0
2017-Oct-10 22:57N 01°16' E 103°50'0 0.0
2017-Oct-10 22:30N 01°16' E 103°50'0 0.0
2017-Oct-10 22:00N 01°16' E 103°50'0 0.0
2017-Oct-10 21:30N 01°16' E 103°50'0 0.0
2017-Oct-10 21:00N 01°16' E 103°50'0 0.0
2017-Oct-10 20:27N 01°16' E 103°50'0 0.0
2017-Oct-10 20:00N 01°16' E 103°50'0 0.0
2017-Oct-10 19:30N 01°16' E 103°50'0 0.0
2017-Oct-10 19:00N 01°16' E 103°50'0 0.0
2017-Oct-10 18:30N 01°16' E 103°50'5 9.3
2017-Oct-10 18:00N 01°14' E 103°54'0 0.3
2017-Oct-10 17:29N 01°14' E 103°54'0 0.5
2017-Oct-10 17:00N 01°14' E 103°54'0 0.9
2017-Oct-10 16:30N 01°14' E 103°55'5 5.3
2017-Oct-10 15:30N 01°16' E 103°50'0 0.0
2017-Oct-10 14:00N 01°16' E 103°50'0 0.0
2017-Oct-10 13:30N 01°16' E 103°50'0 0.0
2017-Oct-10 12:54N 01°16' E 103°50'0 0.0
2017-Oct-10 12:30N 01°16' E 103°50'0 0.0
2017-Oct-10 11:51N 01°16' E 103°50'0 0.0
2017-Oct-10 11:30N 01°16' E 103°50'0 0.0
2017-Oct-10 11:00N 01°16' E 103°50'1 2.0
2017-Oct-10 10:30N 01°16' E 103°51'3 5.8
2017-Oct-10 10:00N 01°14' E 103°53'2 3.7
2017-Oct-10 09:30N 01°14' E 103°55'3 5.4
2017-Oct-10 09:00N 01°15' E 103°58'3 6.7
2017-Oct-10 08:30N 01°16' E 104°01'  

Dump ship's entire track history